sensor_id;sensor_type;location;lat;lon;timestamp;pressure;altitude;pressure_sealevel;temperature
76381;BMP280;65202;52.520;10.528;2023-12-04T00:01:16;101472.88;;;-1.42
76381;BMP280;65202;52.520;10.528;2023-12-04T00:03:44;101471.34;;;-1.33
76381;BMP280;65202;52.520;10.528;2023-12-04T00:06:12;101462.78;;;-1.13
76381;BMP280;65202;52.520;10.528;2023-12-04T00:08:40;101467.69;;;-1.60
76381;BMP280;65202;52.520;10.528;2023-12-04T00:11:08;101460.41;;;-1.67
76381;BMP280;65202;52.520;10.528;2023-12-04T00:13:35;101465.25;;;-1.76
76381;BMP280;65202;52.520;10.528;2023-12-04T00:16:03;101460.69;;;-1.73
76381;BMP280;65202;52.520;10.528;2023-12-04T00:18:30;101457.59;;;-1.79
76381;BMP280;65202;52.520;10.528;2023-12-04T00:20:57;101447.81;;;-1.55
76381;BMP280;65202;52.520;10.528;2023-12-04T00:23:25;101441.97;;;-1.64
76381;BMP280;65202;52.520;10.528;2023-12-04T00:25:54;101437.66;;;-1.58
76381;BMP280;65202;52.520;10.528;2023-12-04T00:28:22;101435.19;;;-1.58
76381;BMP280;65202;52.520;10.528;2023-12-04T00:30:49;101442.94;;;-1.86
76381;BMP280;65202;52.520;10.528;2023-12-04T00:33:16;101432.75;;;-1.58
76381;BMP280;65202;52.520;10.528;2023-12-04T00:35:43;101426.75;;;-1.68
76381;BMP280;65202;52.520;10.528;2023-12-04T00:38:11;101424.16;;;-1.70
76381;BMP280;65202;52.520;10.528;2023-12-04T00:40:38;101422.84;;;-1.51
76381;BMP280;65202;52.520;10.528;2023-12-04T00:43:05;101425.78;;;-1.62
76381;BMP280;65202;52.520;10.528;2023-12-04T00:45:32;101427.44;;;-1.78
76381;BMP280;65202;52.520;10.528;2023-12-04T00:48:00;101419.50;;;-1.90
76381;BMP280;65202;52.520;10.528;2023-12-04T00:50:27;101421.75;;;-1.85
76381;BMP280;65202;52.520;10.528;2023-12-04T00:52:54;101421.06;;;-1.76
76381;BMP280;65202;52.520;10.528;2023-12-04T00:55:22;101412.38;;;-1.33
76381;BMP280;65202;52.520;10.528;2023-12-04T00:57:49;101422.34;;;-1.40
76381;BMP280;65202;52.520;10.528;2023-12-04T01:00:16;101408.41;;;-1.48
76381;BMP280;65202;52.520;10.528;2023-12-04T01:02:44;101415.13;;;-1.38
76381;BMP280;65202;52.520;10.528;2023-12-04T01:05:11;101404.94;;;-1.26
76381;BMP280;65202;52.520;10.528;2023-12-04T01:07:38;101395.31;;;-1.40
76381;BMP280;65202;52.520;10.528;2023-12-04T01:10:06;101402.25;;;-1.12
76381;BMP280;65202;52.520;10.528;2023-12-04T01:12:34;101394.06;;;-1.28
76381;BMP280;65202;52.520;10.528;2023-12-04T01:15:01;101395.16;;;-1.09
76381;BMP280;65202;52.520;10.528;2023-12-04T01:17:29;101387.38;;;-1.14
76381;BMP280;65202;52.520;10.528;2023-12-04T01:19:56;101385.75;;;-1.13
76381;BMP280;65202;52.520;10.528;2023-12-04T01:22:24;101377.50;;;-1.46
76381;BMP280;65202;52.520;10.528;2023-12-04T01:24:51;101373.59;;;-1.20
76381;BMP280;65202;52.520;10.528;2023-12-04T01:27:19;101377.22;;;-1.49
76381;BMP280;65202;52.520;10.528;2023-12-04T01:29:46;101369.22;;;-1.31
76381;BMP280;65202;52.520;10.528;2023-12-04T01:32:13;101365.66;;;-1.50
76381;BMP280;65202;52.520;10.528;2023-12-04T01:34:41;101366.22;;;-1.20
76381;BMP280;65202;52.520;10.528;2023-12-04T01:37:08;101359.53;;;-1.29
76381;BMP280;65202;52.520;10.528;2023-12-04T01:39:35;101362.28;;;-1.83
76381;BMP280;65202;52.520;10.528;2023-12-04T01:42:03;101348.91;;;-1.69
76381;BMP280;65202;52.520;10.528;2023-12-04T01:44:31;101351.41;;;-1.61
76381;BMP280;65202;52.520;10.528;2023-12-04T01:46:58;101355.13;;;-1.73
76381;BMP280;65202;52.520;10.528;2023-12-04T01:49:25;101354.16;;;-1.82
76381;BMP280;65202;52.520;10.528;2023-12-04T01:51:53;101348.97;;;-1.85
76381;BMP280;65202;52.520;10.528;2023-12-04T01:54:21;101342.81;;;-1.96
76381;BMP280;65202;52.520;10.528;2023-12-04T01:56:49;101341.09;;;-1.74
76381;BMP280;65202;52.520;10.528;2023-12-04T01:59:16;101340.69;;;-1.70
76381;BMP280;65202;52.520;10.528;2023-12-04T02:01:44;101347.00;;;-1.48
76381;BMP280;65202;52.520;10.528;2023-12-04T02:04:11;101333.72;;;-1.50
76381;BMP280;65202;52.520;10.528;2023-12-04T02:06:40;101331.22;;;-1.82
76381;BMP280;65202;52.520;10.528;2023-12-04T02:09:08;101331.50;;;-1.79
76381;BMP280;65202;52.520;10.528;2023-12-04T02:11:39;101331.00;;;-1.92
76381;BMP280;65202;52.520;10.528;2023-12-04T02:14:07;101328.25;;;-1.71
76381;BMP280;65202;52.520;10.528;2023-12-04T02:16:39;101325.75;;;-1.80
76381;BMP280;65202;52.520;10.528;2023-12-04T02:19:13;101318.25;;;-1.81
76381;BMP280;65202;52.520;10.528;2023-12-04T02:21:41;101323.16;;;-1.81
76381;BMP280;65202;52.520;10.528;2023-12-04T02:24:08;101316.00;;;-1.71
76381;BMP280;65202;52.520;10.528;2023-12-04T02:26:44;101306.13;;;-1.80
76381;BMP280;65202;52.520;10.528;2023-12-04T02:29:33;101315.31;;;-1.62
76381;BMP280;65202;52.520;10.528;2023-12-04T02:32:15;101309.22;;;-1.89
76381;BMP280;65202;52.520;10.528;2023-12-04T02:34:46;101298.56;;;-1.89
76381;BMP280;65202;52.520;10.528;2023-12-04T02:37:16;101297.81;;;-1.65
76381;BMP280;65202;52.520;10.528;2023-12-04T02:39:44;101296.56;;;-1.85
76381;BMP280;65202;52.520;10.528;2023-12-04T02:42:13;101284.69;;;-1.89
76381;BMP280;65202;52.520;10.528;2023-12-04T02:44:40;101283.47;;;-2.01
76381;BMP280;65202;52.520;10.528;2023-12-04T02:47:08;101286.47;;;-1.80
76381;BMP280;65202;52.520;10.528;2023-12-04T02:49:35;101283.81;;;-1.89
76381;BMP280;65202;52.520;10.528;2023-12-04T02:52:02;101278.28;;;-1.72
76381;BMP280;65202;52.520;10.528;2023-12-04T02:54:30;101277.28;;;-1.74
76381;BMP280;65202;52.520;10.528;2023-12-04T02:56:57;101283.06;;;-1.41
76381;BMP280;65202;52.520;10.528;2023-12-04T02:59:24;101270.97;;;-1.63
76381;BMP280;65202;52.520;10.528;2023-12-04T03:01:51;101276.28;;;-1.67
76381;BMP280;65202;52.520;10.528;2023-12-04T03:04:19;101274.56;;;-1.68
76381;BMP280;65202;52.520;10.528;2023-12-04T03:06:46;101273.22;;;-1.73
76381;BMP280;65202;52.520;10.528;2023-12-04T03:09:14;101255.94;;;-1.58
76381;BMP280;65202;52.520;10.528;2023-12-04T03:11:41;101273.03;;;-1.51
76381;BMP280;65202;52.520;10.528;2023-12-04T03:14:08;101258.59;;;-1.56
76381;BMP280;65202;52.520;10.528;2023-12-04T03:16:36;101258.44;;;-1.82
76381;BMP280;65202;52.520;10.528;2023-12-04T03:19:03;101253.28;;;-1.76
76381;BMP280;65202;52.520;10.528;2023-12-04T03:21:30;101248.34;;;-1.85
76381;BMP280;65202;52.520;10.528;2023-12-04T03:23:58;101244.91;;;-1.78
76381;BMP280;65202;52.520;10.528;2023-12-04T03:26:25;101250.28;;;-1.65
76381;BMP280;65202;52.520;10.528;2023-12-04T03:28:52;101244.34;;;-1.76
76381;BMP280;65202;52.520;10.528;2023-12-04T03:31:19;101240.94;;;-1.61
76381;BMP280;65202;52.520;10.528;2023-12-04T03:33:46;101242.91;;;-1.41
76381;BMP280;65202;52.520;10.528;2023-12-04T03:36:14;101237.16;;;-1.66
76381;BMP280;65202;52.520;10.528;2023-12-04T03:38:41;101226.66;;;-1.56
76381;BMP280;65202;52.520;10.528;2023-12-04T03:41:14;101231.69;;;-1.63
76381;BMP280;65202;52.520;10.528;2023-12-04T03:43:42;101233.94;;;-1.73
76381;BMP280;65202;52.520;10.528;2023-12-04T03:46:10;101215.34;;;-1.63
76381;BMP280;65202;52.520;10.528;2023-12-04T03:48:37;101211.19;;;-1.64
76381;BMP280;65202;52.520;10.528;2023-12-04T03:51:05;101208.38;;;-1.34
76381;BMP280;65202;52.520;10.528;2023-12-04T03:53:33;101194.75;;;-1.56
76381;BMP280;65202;52.520;10.528;2023-12-04T03:56:00;101200.63;;;-1.63
76381;BMP280;65202;52.520;10.528;2023-12-04T03:58:27;101203.34;;;-1.68
76381;BMP280;65202;52.520;10.528;2023-12-04T04:00:54;101202.25;;;-1.55
76381;BMP280;65202;52.520;10.528;2023-12-04T04:03:22;101195.88;;;-1.61
76381;BMP280;65202;52.520;10.528;2023-12-04T04:05:49;101200.34;;;-1.66
76381;BMP280;65202;52.520;10.528;2023-12-04T04:08:16;101187.78;;;-1.60
76381;BMP280;65202;52.520;10.528;2023-12-04T04:10:44;101188.53;;;-1.53
76381;BMP280;65202;52.520;10.528;2023-12-04T04:13:12;101187.53;;;-1.55
76381;BMP280;65202;52.520;10.528;2023-12-04T04:15:39;101181.72;;;-1.64
76381;BMP280;65202;52.520;10.528;2023-12-04T04:18:07;101174.50;;;-1.62
76381;BMP280;65202;52.520;10.528;2023-12-04T04:20:34;101169.91;;;-1.51
76381;BMP280;65202;52.520;10.528;2023-12-04T04:23:01;101160.53;;;-1.55
76381;BMP280;65202;52.520;10.528;2023-12-04T04:25:28;101161.50;;;-1.53
76381;BMP280;65202;52.520;10.528;2023-12-04T04:27:56;101154.63;;;-1.40
76381;BMP280;65202;52.520;10.528;2023-12-04T04:30:23;101145.94;;;-1.45
76381;BMP280;65202;52.520;10.528;2023-12-04T04:32:51;101149.41;;;-1.43
76381;BMP280;65202;52.520;10.528;2023-12-04T04:35:18;101146.53;;;-1.47
76381;BMP280;65202;52.520;10.528;2023-12-04T04:37:45;101140.88;;;-1.38
76381;BMP280;65202;52.520;10.528;2023-12-04T04:40:14;101141.31;;;-1.42
76381;BMP280;65202;52.520;10.528;2023-12-04T04:42:43;101143.06;;;-1.41
76381;BMP280;65202;52.520;10.528;2023-12-04T04:45:10;101132.22;;;-1.43
76381;BMP280;65202;52.520;10.528;2023-12-04T04:47:37;101132.97;;;-1.44
76381;BMP280;65202;52.520;10.528;2023-12-04T04:50:05;101120.81;;;-1.42
76381;BMP280;65202;52.520;10.528;2023-12-04T04:52:32;101124.41;;;-1.39
76381;BMP280;65202;52.520;10.528;2023-12-04T04:55:00;101121.94;;;-1.39
76381;BMP280;65202;52.520;10.528;2023-12-04T04:57:27;101120.09;;;-1.25
76381;BMP280;65202;52.520;10.528;2023-12-04T04:59:54;101114.19;;;-1.35
76381;BMP280;65202;52.520;10.528;2023-12-04T05:02:21;101103.34;;;-1.28
76381;BMP280;65202;52.520;10.528;2023-12-04T05:04:48;101099.00;;;-1.39
76381;BMP280;65202;52.520;10.528;2023-12-04T05:07:16;101104.94;;;-1.37
76381;BMP280;65202;52.520;10.528;2023-12-04T05:09:43;101093.94;;;-1.41
76381;BMP280;65202;52.520;10.528;2023-12-04T05:12:10;101090.34;;;-1.36
76381;BMP280;65202;52.520;10.528;2023-12-04T05:14:38;101095.09;;;-1.37
76381;BMP280;65202;52.520;10.528;2023-12-04T05:17:05;101083.81;;;-1.35
76381;BMP280;65202;52.520;10.528;2023-12-04T05:19:32;101082.09;;;-1.28
76381;BMP280;65202;52.520;10.528;2023-12-04T05:21:59;101077.75;;;-1.22
76381;BMP280;65202;52.520;10.528;2023-12-04T05:24:27;101067.50;;;-1.27
76381;BMP280;65202;52.520;10.528;2023-12-04T05:26:54;101068.97;;;-1.20
76381;BMP280;65202;52.520;10.528;2023-12-04T05:29:21;101060.56;;;-1.22
76381;BMP280;65202;52.520;10.528;2023-12-04T05:31:48;101064.47;;;-1.07
76381;BMP280;65202;52.520;10.528;2023-12-04T05:34:15;101065.03;;;-1.10
76381;BMP280;65202;52.520;10.528;2023-12-04T05:36:43;101065.19;;;-1.08
76381;BMP280;65202;52.520;10.528;2023-12-04T05:39:10;101058.13;;;-1.14
76381;BMP280;65202;52.520;10.528;2023-12-04T05:41:37;101054.94;;;-1.21
76381;BMP280;65202;52.520;10.528;2023-12-04T05:44:04;101053.91;;;-1.15
76381;BMP280;65202;52.520;10.528;2023-12-04T05:46:32;101049.84;;;-1.14
76381;BMP280;65202;52.520;10.528;2023-12-04T05:48:59;101052.31;;;-1.14
76381;BMP280;65202;52.520;10.528;2023-12-04T05:51:26;101053.03;;;-1.07
76381;BMP280;65202;52.520;10.528;2023-12-04T05:53:53;101049.53;;;-1.00
76381;BMP280;65202;52.520;10.528;2023-12-04T05:56:21;101045.47;;;-0.74
76381;BMP280;65202;52.520;10.528;2023-12-04T05:58:48;101053.75;;;-0.99
76381;BMP280;65202;52.520;10.528;2023-12-04T06:01:15;101051.41;;;-0.89
76381;BMP280;65202;52.520;10.528;2023-12-04T06:03:42;101040.88;;;-0.88
76381;BMP280;65202;52.520;10.528;2023-12-04T06:06:10;101051.28;;;-0.82
76381;BMP280;65202;52.520;10.528;2023-12-04T06:08:37;101033.63;;;-0.87
76381;BMP280;65202;52.520;10.528;2023-12-04T06:11:04;101029.16;;;-0.82
76381;BMP280;65202;52.520;10.528;2023-12-04T06:13:31;101024.81;;;-0.85
76381;BMP280;65202;52.520;10.528;2023-12-04T06:15:59;101028.69;;;-0.78
76381;BMP280;65202;52.520;10.528;2023-12-04T06:18:26;101035.19;;;-0.79
76381;BMP280;65202;52.520;10.528;2023-12-04T06:20:55;101027.81;;;-0.70
76381;BMP280;65202;52.520;10.528;2023-12-04T06:23:22;101017.25;;;-0.69
76381;BMP280;65202;52.520;10.528;2023-12-04T06:25:50;101030.72;;;-0.74
76381;BMP280;65202;52.520;10.528;2023-12-04T06:28:18;101019.31;;;-0.82
76381;BMP280;65202;52.520;10.528;2023-12-04T06:30:46;101030.38;;;-0.61
76381;BMP280;65202;52.520;10.528;2023-12-04T06:33:14;101033.16;;;-0.74
76381;BMP280;65202;52.520;10.528;2023-12-04T06:35:42;101023.34;;;-0.74
76381;BMP280;65202;52.520;10.528;2023-12-04T06:38:13;101037.88;;;-0.51
76381;BMP280;65202;52.520;10.528;2023-12-04T06:40:43;101034.84;;;-0.57
76381;BMP280;65202;52.520;10.528;2023-12-04T06:43:10;101032.09;;;-0.51
76381;BMP280;65202;52.520;10.528;2023-12-04T06:45:38;101029.91;;;-0.57
76381;BMP280;65202;52.520;10.528;2023-12-04T06:48:05;101014.78;;;-0.69
76381;BMP280;65202;52.520;10.528;2023-12-04T06:50:33;101024.19;;;-0.74
76381;BMP280;65202;52.520;10.528;2023-12-04T06:53:00;101014.94;;;-0.76
76381;BMP280;65202;52.520;10.528;2023-12-04T06:55:28;101003.34;;;-0.69
76381;BMP280;65202;52.520;10.528;2023-12-04T06:57:55;101011.19;;;-0.73
76381;BMP280;65202;52.520;10.528;2023-12-04T07:00:22;101009.88;;;-0.69
76381;BMP280;65202;52.520;10.528;2023-12-04T07:02:50;101004.09;;;-0.70
76381;BMP280;65202;52.520;10.528;2023-12-04T07:05:19;101005.63;;;-0.54
76381;BMP280;65202;52.520;10.528;2023-12-04T07:07:46;101006.38;;;-0.63
76381;BMP280;65202;52.520;10.528;2023-12-04T07:10:14;100997.13;;;-0.74
76381;BMP280;65202;52.520;10.528;2023-12-04T07:12:42;101002.59;;;-0.60
76381;BMP280;65202;52.520;10.528;2023-12-04T07:15:11;100997.47;;;-0.44
76381;BMP280;65202;52.520;10.528;2023-12-04T07:17:39;101004.78;;;-0.63
76381;BMP280;65202;52.520;10.528;2023-12-04T07:20:07;101006.81;;;-0.59
76381;BMP280;65202;52.520;10.528;2023-12-04T07:22:35;101007.91;;;-0.55
76381;BMP280;65202;52.520;10.528;2023-12-04T07:25:06;101007.31;;;-0.53
76381;BMP280;65202;52.520;10.528;2023-12-04T07:27:36;101009.53;;;-0.56
76381;BMP280;65202;52.520;10.528;2023-12-04T07:30:04;101004.88;;;-0.53
76381;BMP280;65202;52.520;10.528;2023-12-04T07:32:32;101015.16;;;-0.57
76381;BMP280;65202;52.520;10.528;2023-12-04T07:34:59;101007.72;;;-0.40
76381;BMP280;65202;52.520;10.528;2023-12-04T07:37:27;101007.31;;;-0.44
76381;BMP280;65202;52.520;10.528;2023-12-04T07:39:57;101027.00;;;-0.53
76381;BMP280;65202;52.520;10.528;2023-12-04T07:42:24;101024.75;;;-0.33
76381;BMP280;65202;52.520;10.528;2023-12-04T07:44:51;101020.84;;;-0.31
76381;BMP280;65202;52.520;10.528;2023-12-04T07:47:19;101022.66;;;-0.47
76381;BMP280;65202;52.520;10.528;2023-12-04T07:49:46;101024.16;;;-0.30
76381;BMP280;65202;52.520;10.528;2023-12-04T07:52:13;101028.22;;;-0.31
76381;BMP280;65202;52.520;10.528;2023-12-04T07:54:41;101037.81;;;-0.34
76381;BMP280;65202;52.520;10.528;2023-12-04T07:57:08;101027.41;;;-0.13
76381;BMP280;65202;52.520;10.528;2023-12-04T07:59:35;101026.59;;;-0.22
76381;BMP280;65202;52.520;10.528;2023-12-04T08:02:02;101031.28;;;-0.33
76381;BMP280;65202;52.520;10.528;2023-12-04T08:04:30;101039.69;;;-0.31
76381;BMP280;65202;52.520;10.528;2023-12-04T08:06:57;101025.63;;;-0.05
76381;BMP280;65202;52.520;10.528;2023-12-04T08:09:24;101028.69;;;-0.35
76381;BMP280;65202;52.520;10.528;2023-12-04T08:11:52;101027.88;;;-0.17
76381;BMP280;65202;52.520;10.528;2023-12-04T08:14:24;101026.09;;;-0.09
76381;BMP280;65202;52.520;10.528;2023-12-04T08:16:51;101023.91;;;-0.06
76381;BMP280;65202;52.520;10.528;2023-12-04T08:19:18;101025.50;;;-0.07
76381;BMP280;65202;52.520;10.528;2023-12-04T08:21:46;101014.25;;;0.05
76381;BMP280;65202;52.520;10.528;2023-12-04T08:24:13;101014.38;;;-0.12
76381;BMP280;65202;52.520;10.528;2023-12-04T08:26:40;101018.88;;;0.10
76381;BMP280;65202;52.520;10.528;2023-12-04T08:29:08;101010.00;;;0.12
76381;BMP280;65202;52.520;10.528;2023-12-04T08:31:35;101004.63;;;-0.02
76381;BMP280;65202;52.520;10.528;2023-12-04T08:34:02;100999.97;;;0.01
76381;BMP280;65202;52.520;10.528;2023-12-04T08:36:29;101013.16;;;0.01
76381;BMP280;65202;52.520;10.528;2023-12-04T08:39:13;101003.81;;;0.07
76381;BMP280;65202;52.520;10.528;2023-12-04T08:41:40;101008.53;;;0.23
76381;BMP280;65202;52.520;10.528;2023-12-04T08:44:19;101004.88;;;0.28
76381;BMP280;65202;52.520;10.528;2023-12-04T08:46:47;101009.19;;;0.30
76381;BMP280;65202;52.520;10.528;2023-12-04T08:49:14;101004.56;;;0.25
76381;BMP280;65202;52.520;10.528;2023-12-04T08:51:41;101002.66;;;0.31
76381;BMP280;65202;52.520;10.528;2023-12-04T08:54:08;101003.84;;;0.26
76381;BMP280;65202;52.520;10.528;2023-12-04T08:56:38;101003.13;;;0.27
76381;BMP280;65202;52.520;10.528;2023-12-04T08:59:06;100999.31;;;0.49
76381;BMP280;65202;52.520;10.528;2023-12-04T09:01:33;101002.78;;;0.32
76381;BMP280;65202;52.520;10.528;2023-12-04T09:04:00;101004.38;;;0.32
76381;BMP280;65202;52.520;10.528;2023-12-04T09:06:28;101007.84;;;0.34
76381;BMP280;65202;52.520;10.528;2023-12-04T09:08:58;101005.97;;;0.13
76381;BMP280;65202;52.520;10.528;2023-12-04T09:11:26;101003.56;;;0.41
76381;BMP280;65202;52.520;10.528;2023-12-04T09:13:54;101008.78;;;0.26
76381;BMP280;65202;52.520;10.528;2023-12-04T09:16:22;100997.47;;;0.28
76381;BMP280;65202;52.520;10.528;2023-12-04T09:18:50;101002.47;;;0.38
76381;BMP280;65202;52.520;10.528;2023-12-04T09:21:17;101005.19;;;0.41
76381;BMP280;65202;52.520;10.528;2023-12-04T09:23:44;101002.56;;;0.21
76381;BMP280;65202;52.520;10.528;2023-12-04T09:26:16;101005.16;;;0.22
76381;BMP280;65202;52.520;10.528;2023-12-04T09:28:44;101001.63;;;0.29
76381;BMP280;65202;52.520;10.528;2023-12-04T09:31:11;101002.53;;;0.48
76381;BMP280;65202;52.520;10.528;2023-12-04T09:33:38;100997.78;;;0.41
76381;BMP280;65202;52.520;10.528;2023-12-04T09:36:06;101000.06;;;0.48
76381;BMP280;65202;52.520;10.528;2023-12-04T09:38:34;100994.13;;;0.27
76381;BMP280;65202;52.520;10.528;2023-12-04T09:41:03;100989.69;;;0.42
76381;BMP280;65202;52.520;10.528;2023-12-04T09:43:32;100986.94;;;0.57
76381;BMP280;65202;52.520;10.528;2023-12-04T09:45:59;100997.25;;;0.35
76381;BMP280;65202;52.520;10.528;2023-12-04T09:48:27;100990.47;;;0.51
76381;BMP280;65202;52.520;10.528;2023-12-04T09:50:57;100985.19;;;0.74
76381;BMP280;65202;52.520;10.528;2023-12-04T09:53:26;100977.13;;;0.49
76381;BMP280;65202;52.520;10.528;2023-12-04T09:55:57;100981.03;;;0.37
76381;BMP280;65202;52.520;10.528;2023-12-04T09:58:28;100964.50;;;0.36
76381;BMP280;65202;52.520;10.528;2023-12-04T10:01:00;100955.88;;;0.31
76381;BMP280;65202;52.520;10.528;2023-12-04T10:03:29;100952.69;;;0.32
76381;BMP280;65202;52.520;10.528;2023-12-04T10:05:57;100947.09;;;0.43
76381;BMP280;65202;52.520;10.528;2023-12-04T10:08:24;100940.22;;;0.30
76381;BMP280;65202;52.520;10.528;2023-12-04T10:10:52;100928.63;;;0.48
76381;BMP280;65202;52.520;10.528;2023-12-04T10:13:19;100936.41;;;0.34
76381;BMP280;65202;52.520;10.528;2023-12-04T10:16:06;100928.44;;;0.36
76381;BMP280;65202;52.520;10.528;2023-12-04T10:18:34;100919.88;;;0.51
76381;BMP280;65202;52.520;10.528;2023-12-04T10:21:01;100917.41;;;0.51
76381;BMP280;65202;52.520;10.528;2023-12-04T10:23:40;100912.13;;;0.47
76381;BMP280;65202;52.520;10.528;2023-12-04T10:26:09;100907.81;;;0.44
76381;BMP280;65202;52.520;10.528;2023-12-04T10:28:58;100897.88;;;0.53
76381;BMP280;65202;52.520;10.528;2023-12-04T10:31:32;100884.59;;;0.61
76381;BMP280;65202;52.520;10.528;2023-12-04T10:34:03;100883.47;;;0.57
76381;BMP280;65202;52.520;10.528;2023-12-04T10:36:37;100893.56;;;0.60
76381;BMP280;65202;52.520;10.528;2023-12-04T10:39:05;100881.88;;;0.67
76381;BMP280;65202;52.520;10.528;2023-12-04T10:41:32;100879.91;;;0.63
76381;BMP280;65202;52.520;10.528;2023-12-04T10:44:00;100877.47;;;0.73
76381;BMP280;65202;52.520;10.528;2023-12-04T10:46:37;100878.44;;;0.65
76381;BMP280;65202;52.520;10.528;2023-12-04T10:49:09;100875.50;;;0.69
76381;BMP280;65202;52.520;10.528;2023-12-04T10:51:37;100866.66;;;0.43
76381;BMP280;65202;52.520;10.528;2023-12-04T10:54:05;100868.31;;;0.62
76381;BMP280;65202;52.520;10.528;2023-12-04T10:56:36;100860.97;;;0.72
76381;BMP280;65202;52.520;10.528;2023-12-04T10:59:10;100859.72;;;0.67
76381;BMP280;65202;52.520;10.528;2023-12-04T11:01:44;100864.91;;;0.70
76381;BMP280;65202;52.520;10.528;2023-12-04T11:04:16;100870.00;;;0.82
76381;BMP280;65202;52.520;10.528;2023-12-04T11:06:53;100863.59;;;0.74
76381;BMP280;65202;52.520;10.528;2023-12-04T11:09:22;100862.09;;;0.76
76381;BMP280;65202;52.520;10.528;2023-12-04T11:11:57;100863.22;;;0.79
76381;BMP280;65202;52.520;10.528;2023-12-04T11:14:35;100863.41;;;0.72
76381;BMP280;65202;52.520;10.528;2023-12-04T11:17:13;100852.47;;;0.69
76381;BMP280;65202;52.520;10.528;2023-12-04T11:19:55;100850.75;;;0.68
76381;BMP280;65202;52.520;10.528;2023-12-04T11:22:26;100842.31;;;0.56
76381;BMP280;65202;52.520;10.528;2023-12-04T11:24:55;100846.53;;;0.67
76381;BMP280;65202;52.520;10.528;2023-12-04T11:27:23;100838.06;;;0.73
76381;BMP280;65202;52.520;10.528;2023-12-04T11:29:51;100836.69;;;0.67
76381;BMP280;65202;52.520;10.528;2023-12-04T11:32:20;100834.81;;;0.64
76381;BMP280;65202;52.520;10.528;2023-12-04T11:34:54;100837.53;;;0.67
76381;BMP280;65202;52.520;10.528;2023-12-04T11:37:22;100836.06;;;0.69
76381;BMP280;65202;52.520;10.528;2023-12-04T11:39:50;100830.66;;;0.73
76381;BMP280;65202;52.520;10.528;2023-12-04T11:42:24;100826.19;;;0.60
76381;BMP280;65202;52.520;10.528;2023-12-04T11:44:56;100822.94;;;0.79
76381;BMP280;65202;52.520;10.528;2023-12-04T11:47:27;100821.75;;;0.56
76381;BMP280;65202;52.520;10.528;2023-12-04T11:49:57;100814.63;;;0.68
76381;BMP280;65202;52.520;10.528;2023-12-04T11:52:33;100822.00;;;0.59
76381;BMP280;65202;52.520;10.528;2023-12-04T11:55:04;100808.59;;;0.65
76381;BMP280;65202;52.520;10.528;2023-12-04T11:57:34;100804.91;;;0.70
76381;BMP280;65202;52.520;10.528;2023-12-04T12:00:13;100801.56;;;0.60
76381;BMP280;65202;52.520;10.528;2023-12-04T12:05:36;100799.84;;;0.68
76381;BMP280;65202;52.520;10.528;2023-12-04T12:08:07;100794.91;;;0.68
76381;BMP280;65202;52.520;10.528;2023-12-04T12:10:35;100796.41;;;0.86
76381;BMP280;65202;52.520;10.528;2023-12-04T12:13:02;100789.88;;;0.77
76381;BMP280;65202;52.520;10.528;2023-12-04T12:15:32;100772.72;;;0.59
76381;BMP280;65202;52.520;10.528;2023-12-04T12:18:00;100771.50;;;0.63
76381;BMP280;65202;52.520;10.528;2023-12-04T12:20:27;100780.66;;;0.74
76381;BMP280;65202;52.520;10.528;2023-12-04T12:22:55;100761.91;;;0.57
76381;BMP280;65202;52.520;10.528;2023-12-04T12:25:23;100755.47;;;0.59
76381;BMP280;65202;52.520;10.528;2023-12-04T12:27:51;100753.03;;;0.59
76381;BMP280;65202;52.520;10.528;2023-12-04T12:30:18;100748.97;;;0.59
76381;BMP280;65202;52.520;10.528;2023-12-04T12:32:46;100746.03;;;0.73
76381;BMP280;65202;52.520;10.528;2023-12-04T12:35:13;100743.16;;;0.59
76381;BMP280;65202;52.520;10.528;2023-12-04T12:37:40;100743.53;;;0.53
76381;BMP280;65202;52.520;10.528;2023-12-04T12:40:09;100744.75;;;0.48
76381;BMP280;65202;52.520;10.528;2023-12-04T12:42:37;100733.31;;;0.59
76381;BMP280;65202;52.520;10.528;2023-12-04T12:45:11;100734.34;;;0.80
76381;BMP280;65202;52.520;10.528;2023-12-04T12:47:43;100730.63;;;0.65
76381;BMP280;65202;52.520;10.528;2023-12-04T12:50:11;100730.97;;;0.50
76381;BMP280;65202;52.520;10.528;2023-12-04T12:52:40;100729.88;;;0.57
76381;BMP280;65202;52.520;10.528;2023-12-04T12:55:08;100726.81;;;0.59
76381;BMP280;65202;52.520;10.528;2023-12-04T12:57:36;100732.31;;;0.47
76381;BMP280;65202;52.520;10.528;2023-12-04T13:00:05;100721.72;;;0.58
76381;BMP280;65202;52.520;10.528;2023-12-04T13:02:35;100710.66;;;0.43
76381;BMP280;65202;52.520;10.528;2023-12-04T13:05:04;100708.19;;;0.53
76381;BMP280;65202;52.520;10.528;2023-12-04T13:07:33;100703.28;;;0.53
76381;BMP280;65202;52.520;10.528;2023-12-04T13:10:01;100704.50;;;0.48
76381;BMP280;65202;52.520;10.528;2023-12-04T13:12:29;100705.94;;;0.36
76381;BMP280;65202;52.520;10.528;2023-12-04T13:14:57;100701.75;;;0.35
76381;BMP280;65202;52.520;10.528;2023-12-04T13:17:24;100704.63;;;0.49
76381;BMP280;65202;52.520;10.528;2023-12-04T13:19:51;100697.72;;;0.45
76381;BMP280;65202;52.520;10.528;2023-12-04T13:22:19;100690.47;;;0.57
76381;BMP280;65202;52.520;10.528;2023-12-04T13:24:47;100697.97;;;0.48
76381;BMP280;65202;52.520;10.528;2023-12-04T13:27:14;100694.38;;;0.45
76381;BMP280;65202;52.520;10.528;2023-12-04T13:29:42;100688.34;;;0.51
76381;BMP280;65202;52.520;10.528;2023-12-04T13:32:09;100685.75;;;0.40
76381;BMP280;65202;52.520;10.528;2023-12-04T13:34:36;100683.03;;;0.37
76381;BMP280;65202;52.520;10.528;2023-12-04T13:37:03;100675.69;;;0.57
76381;BMP280;65202;52.520;10.528;2023-12-04T13:39:31;100678.88;;;0.56
76381;BMP280;65202;52.520;10.528;2023-12-04T13:42:24;100673.94;;;0.56
76381;BMP280;65202;52.520;10.528;2023-12-04T13:45:11;100674.31;;;0.50
76381;BMP280;65202;52.520;10.528;2023-12-04T13:47:39;100670.34;;;0.42
76381;BMP280;65202;52.520;10.528;2023-12-04T13:50:07;100667.78;;;0.51
76381;BMP280;65202;52.520;10.528;2023-12-04T13:52:38;100661.38;;;0.43
76381;BMP280;65202;52.520;10.528;2023-12-04T13:55:06;100656.31;;;0.51
76381;BMP280;65202;52.520;10.528;2023-12-04T13:58:03;100640.69;;;0.51
76381;BMP280;65202;52.520;10.528;2023-12-04T14:00:30;100643.16;;;0.41